.
WxDataArchive / Data Records for 2008-06-18
2008-06-17 June 2008 2008-06-19

Data Records for Wednesday, 18 June 2008

Time	Temp	Chill	HIndex	Humid	Dewpt	 Wind 	HiWind	WindDir	Rain 	Barom 
-----	----	-----	------	-----	-----	------	------	-------	-----	----- 
00:00	57.6	57.6	57.6	72	48.6	0	0	---	0.00	29.838 
00:05	57.5	57.5	57.5	72	48.5	0	0	---	0.00	29.835 
00:10	57.5	57.5	57.5	73	48.9	0	0	---	0.00	29.834 
00:15	57.5	57.5	57.5	73	48.9	0	0	---	0.00	29.832 
00:20	57.5	57.5	57.5	74	49.3	0	0	---	0.00	29.831 
00:25	57.6	57.6	57.6	73	49.0	0	0	---	0.00	29.830 
00:30	57.6	57.6	57.6	74	49.4	0	0	---	0.00	29.827 
00:35	57.6	57.6	57.6	73	49.0	0	1	270	0.00	29.827 
00:40	57.8	57.8	57.8	72	48.8	0	1	270	0.00	29.826 
00:45	58.1	58.1	58.1	72	49.1	0	0	---	0.00	29.825 
00:50	58.3	58.3	58.3	71	48.9	0	1	270	0.00	29.825 
00:55	58.6	58.6	58.6	70	48.8	0	1	270	0.00	29.824 
01:00	59.2	59.2	59.2	69	49.0	0	1	270	0.00	29.824 
01:05	59.5	59.5	59.5	68	48.9	0	1	270	0.00	29.823 
01:10	59.8	59.8	59.8	67	48.8	0	1	270	0.00	29.821 
01:15	59.9	59.9	59.9	67	48.9	0	1	270	0.00	29.821 
01:20	59.9	59.9	59.9	67	48.9	0	1	270	0.00	29.820 
01:25	59.8	59.8	59.8	67	48.8	0	1	270	0.00	29.820 
01:30	59.8	59.8	59.8	67	48.8	0	1	270	0.00	29.816 
01:35	59.6	59.6	59.6	67	48.6	0	1	270	0.00	29.813 
01:40	59.5	59.5	59.5	67	48.5	0	1	270	0.00	29.811 
01:45	59.5	59.5	59.5	67	48.5	0	1	270	0.00	29.810 
01:50	59.3	59.3	59.3	67	48.3	0	1	270	0.00	29.809 
01:55	59.3	59.3	59.3	68	48.7	0	1	270	0.00	29.811 
02:00	59.5	59.5	59.5	68	48.9	0	1	270	0.00	29.817 
02:05	59.8	59.8	59.8	67	48.8	0	4	315	0.00	29.817 
02:10	59.8	59.8	59.8	66	48.4	0	2	315	0.00	29.815 
02:15	59.8	59.8	59.8	66	48.4	0	1	315	0.00	29.814 
02:20	59.9	59.9	59.9	66	48.5	0	2	315	0.00	29.813 
02:25	59.9	59.9	59.9	66	48.5	0	1	315	0.00	29.810 
02:30	60.1	60.1	60.1	65	48.3	0	1	315	0.00	29.811 
02:35	60.1	60.1	60.1	65	48.3	0	1	315	0.00	29.811 
02:40	59.9	59.9	59.9	66	48.5	0	1	315	0.00	29.811 
02:45	59.8	59.8	59.8	66	48.4	0	1	315	0.00	29.814 
02:50	59.5	59.5	59.5	66	48.1	0	1	315	0.00	29.811 
02:55	59.3	59.3	59.3	66	47.9	0	1	315	0.00	29.812 
03:00	59.2	59.2	59.2	67	48.2	0	1	315	0.00	29.811 
03:05	59.0	59.0	59.0	67	48.1	0	1	315	0.00	29.811 
03:10	59.0	59.0	59.0	67	48.1	0	1	315	0.00	29.810 
03:15	59.0	59.0	59.0	66	47.7	0	1	315	0.00	29.809 
03:20	59.0	59.0	59.0	66	47.7	0	1	315	0.00	29.809 
03:25	58.9	58.9	58.9	67	48.0	0	4	315	0.00	29.809 
03:30	58.7	58.7	58.7	67	47.8	0	1	315	0.00	29.809 
03:35	58.6	58.6	58.6	67	47.7	0	3	315	0.00	29.809 
03:40	58.6	58.6	58.6	67	47.7	0	1	315	0.00	29.808 
03:45	58.6	58.6	58.6	68	48.1	0	1	315	0.00	29.808 
03:50	58.4	58.4	58.4	68	47.9	0	1	315	0.00	29.807 
03:55	58.1	58.1	58.1	69	48.0	0	1	315	0.00	29.808 
04:00	57.8	57.8	57.8	69	47.7	0	1	315	0.00	29.807 
04:05	57.6	57.6	57.6	69	47.5	0	1	315	0.00	29.808 
04:10	57.5	57.5	57.5	70	47.8	0	1	315	0.00	29.807 
04:15	57.2	57.2	57.2	71	47.9	0	0	---	0.00	29.809 
04:20	57.0	57.0	57.0	71	47.7	0	1	315	0.00	29.809 
04:25	56.7	56.7	56.7	72	47.8	0	0	---	0.00	29.809 
04:30	56.5	56.5	56.5	73	47.9	0	0	---	0.00	29.810 
04:35	56.2	56.2	56.2	73	47.7	0	0	---	0.00	29.811 
04:40	55.9	55.9	55.9	74	47.7	0	0	---	0.00	29.809 
04:45	55.6	55.6	55.6	75	47.8	0	0	---	0.00	29.810 
04:50	55.3	55.3	55.3	76	47.9	0	0	---	0.00	29.812 
04:55	55.1	55.1	55.1	77	48.0	0	0	---	0.00	29.816 
05:00	55.0	55.0	55.0	77	47.9	0	1	315	0.00	29.816 
05:05	55.0	55.0	55.0	77	47.9	0	1	315	0.00	29.817 
05:10	55.1	55.1	55.1	77	48.0	0	0	---	0.00	29.819 
05:15	55.0	55.0	55.0	77	47.9	0	0	---	0.00	29.818 
05:20	54.8	54.8	54.8	78	48.1	0	0	---	0.00	29.817 
05:25	54.8	54.8	54.8	78	48.1	0	0	---	0.00	29.819 
05:30	54.7	54.7	54.7	79	48.3	0	0	---	0.00	29.822 
05:35	54.8	54.8	54.8	78	48.1	0	1	315	0.00	29.821 
05:40	55.0	55.0	55.0	78	48.3	0	0	---	0.00	29.821 
05:45	55.1	55.1	55.1	78	48.4	0	0	---	0.00	29.821 
05:50	55.3	55.3	55.3	78	48.6	0	1	315	0.00	29.824 
05:55	55.4	55.4	55.4	78	48.7	0	1	315	0.00	29.825 
06:00	55.6	55.6	55.6	77	48.5	0	1	315	0.00	29.823 
06:05	55.7	55.7	55.7	77	48.6	0	1	315	0.00	29.824 
06:10	56.0	56.0	56.0	77	48.9	0	0	---	0.00	29.826 
06:15	56.3	56.3	56.3	76	48.8	0	1	315	0.00	29.826 
06:20	56.6	56.6	56.6	75	48.8	0	1	315	0.00	29.824 
06:25	56.9	56.9	56.9	74	48.7	0	1	315	0.00	29.825 
06:30	57.3	57.3	57.3	74	49.1	0	1	315	0.00	29.825 
06:35	57.6	57.6	57.6	73	49.0	0	1	315	0.00	29.827 
06:40	58.1	58.1	58.1	72	49.1	0	1	315	0.00	29.831 
06:45	58.6	58.6	58.6	71	49.2	0	2	315	0.00	29.832 
06:50	59.0	59.0	59.0	69	48.8	0	2	292	0.00	29.829 
06:55	59.5	59.5	59.5	68	48.9	0	1	292	0.00	29.827 
07:00	59.9	59.9	59.9	68	49.3	0	1	292	0.00	29.830 
07:05	60.2	60.2	60.2	66	48.8	1	2	270	0.00	29.833 
07:10	60.5	60.5	60.5	65	48.7	1	3	292	0.00	29.836 
07:15	61.0	61.0	61.0	65	49.1	0	3	292	0.00	29.831 
07:20	61.3	61.3	61.3	64	49.0	0	3	292	0.00	29.830 
07:25	61.5	61.5	61.5	63	48.8	1	3	270	0.00	29.830 
07:30	61.6	61.6	61.6	62	48.4	1	2	270	0.00	29.831 
07:35	62.0	62.0	62.0	62	48.8	1	4	248	0.00	29.831 
07:40	62.1	62.1	62.1	62	48.9	1	3	248	0.00	29.829 
07:45	62.4	62.4	62.4	61	48.8	1	2	292	0.00	29.833 
07:50	62.9	62.9	62.9	62	49.7	1	3	292	0.00	29.833 
07:55	63.2	63.2	63.2	59	48.6	1	3	292	0.00	29.833 
08:00	63.7	63.7	63.7	60	49.5	1	3	248	0.00	29.832 
08:05	63.9	63.9	63.9	59	49.3	1	3	270	0.00	29.840 
08:10	63.9	63.9	63.9	57	48.4	1	4	315	0.00	29.840 
08:15	63.9	63.9	63.9	58	48.8	1	4	315	0.00	29.840 
08:20	64.2	64.2	64.2	58	49.1	1	3	225	0.00	29.839 
08:25	64.3	64.3	64.3	58	49.2	1	3	225	0.00	29.838 
08:30	64.7	64.7	64.7	57	49.1	0	2	338	0.00	29.836 
08:35	64.7	64.7	64.7	58	49.6	1	4	270	0.00	29.838 
08:40	65.0	65.0	65.0	58	49.9	1	3	270	0.00	29.838 
08:45	65.0	65.0	65.0	58	49.9	2	5	292	0.00	29.838 
08:50	65.0	65.0	65.0	55	48.4	1	3	292	0.00	29.839 
08:55	65.5	65.5	65.5	58	50.3	1	3	292	0.00	29.839 
09:00	65.6	65.6	65.6	55	49.0	1	4	248	0.00	29.839 
09:05	66.0	66.0	66.0	57	50.3	1	3	292	0.00	29.842 
09:10	66.3	66.3	66.3	55	49.6	1	3	292	0.00	29.842 
09:15	66.8	66.8	66.8	56	50.6	1	3	292	0.00	29.840 
09:20	66.9	66.9	66.9	53	49.2	1	5	315	0.00	29.840 
09:25	66.9	66.9	66.9	54	49.7	1	4	315	0.00	29.839 
09:30	67.1	67.1	67.1	53	49.4	1	4	292	0.00	29.840 
09:35	67.3	67.3	67.3	53	49.6	1	4	270	0.00	29.841 
09:40	67.6	67.6	67.6	52	49.3	1	3	338	0.00	29.840 
09:45	67.8	67.8	67.8	50	48.5	1	4	292	0.00	29.840 
09:50	67.9	67.9	67.9	54	50.6	1	3	315	0.00	29.840 
09:55	68.1	68.1	68.1	52	49.8	2	6	270	0.00	29.839 
10:00	68.1	68.1	68.1	50	48.7	1	4	315	0.00	29.841 
10:05	68.4	68.4	68.4	54	51.1	1	3	292	0.00	29.840 
10:10	68.8	68.8	68.8	50	49.4	1	5	338	0.00	29.841 
10:15	68.8	68.8	68.8	50	49.4	1	3	270	0.00	29.841 
10:20	68.9	68.9	68.9	51	50.0	0	3	338	0.00	29.842 
10:25	69.1	69.1	69.1	49	49.1	2	4	270	0.00	29.842 
10:30	69.4	69.4	69.4	50	49.9	2	3	315	0.00	29.841 
10:35	69.8	69.8	69.8	50	50.3	1	3	315	0.00	29.842 
10:40	69.8	69.8	69.8	49	49.8	1	4	315	0.00	29.842 
10:45	69.8	69.8	69.8	47	48.6	1	4	338	0.00	29.842 
10:50	69.4	69.4	69.4	47	48.3	1	4	315	0.00	29.843 
10:55	69.8	69.8	69.8	49	49.8	2	5	292	0.00	29.842 
11:00	70.1	70.1	70.1	47	48.9	2	5	315	0.00	29.845 
11:05	70.3	70.3	70.3	49	50.2	1	2	315	0.00	29.845 
11:10	70.8	70.8	70.8	48	50.1	1	4	315	0.00	29.843 
11:15	70.3	70.3	70.3	46	48.5	2	5	315	0.00	29.846 
11:20	70.4	70.4	70.4	48	49.8	2	7	270	0.00	29.846 
11:25	70.4	70.4	70.4	47	49.2	1	4	270	0.00	29.844 
11:30	70.8	70.8	70.8	46	49.0	2	5	315	0.00	29.844 
11:35	70.9	70.9	70.9	45	48.5	1	4	315	0.00	29.846 
11:40	71.1	71.1	71.1	47	49.8	1	4	292	0.00	29.843 
11:45	71.3	71.3	71.3	45	48.8	1	4	338	0.00	29.841 
11:50	71.1	71.1	71.1	47	49.8	1	3	315	0.00	29.845 
11:55	70.4	70.4	70.4	45	48.0	1	3	315	0.00	29.844 
12:00	70.1	70.1	70.1	46	48.3	2	4	292	0.00	29.841 
12:05	70.6	70.6	70.6	49	50.5	1	3	270	0.00	29.842 
12:10	71.1	71.1	71.1	45	48.7	1	5	270	0.00	29.843 
12:15	71.1	71.1	71.1	47	49.8	3	9	292	0.00	29.844 
12:20	70.8	70.8	70.8	43	47.2	1	3	315	0.00	29.841 
12:25	70.4	70.4	70.4	43	46.8	2	4	292	0.00	29.841 
12:30	70.1	70.1	70.1	46	48.3	2	6	315	0.00	29.843 
12:35	70.9	70.9	70.9	45	48.5	2	6	315	0.00	29.841 
12:40	71.6	71.6	71.6	45	49.1	2	4	270	0.00	29.840 
12:45	72.1	72.1	72.1	42	47.7	2	7	315	0.00	29.841 
12:50	72.0	72.0	72.0	43	48.3	3	5	270	0.00	29.838 
12:55	72.1	72.1	72.1	41	47.1	2	7	292	0.00	29.838 
13:00	72.1	72.1	72.1	41	47.1	3	7	315	0.00	29.838 
13:05	72.3	72.3	72.3	43	48.5	2	6	315	0.00	29.835 
13:10	72.5	72.5	72.5	41	47.4	3	6	270	0.00	29.836 
13:15	71.8	71.8	71.8	42	47.5	3	5	292	0.00	29.837 
13:20	71.3	71.3	71.3	44	48.2	2	4	315	0.00	29.837 
13:25	71.3	71.3	71.3	41	46.4	2	6	270	0.00	29.837 
13:30	70.9	70.9	70.9	42	46.6	2	5	315	0.00	29.836 
13:35	70.8	70.8	70.8	45	48.4	1	4	270	0.00	29.836 
13:40	71.8	71.8	71.8	42	47.5	3	7	270	0.00	29.835 
13:45	70.9	70.9	70.9	42	46.6	2	5	315	0.00	29.837 
13:50	71.6	71.6	71.6	43	47.9	3	6	270	0.00	29.837 
13:55	72.1	72.1	72.1	44	49.0	2	5	315	0.00	29.832 
14:00	72.0	72.0	72.0	41	47.0	3	7	315	0.00	29.829 
14:05	70.8	70.8	70.8	44	47.8	1	3	315	0.00	29.832 
14:10	71.1	71.1	71.1	43	47.5	2	5	292	0.00	29.830 
14:15	71.3	71.3	71.3	41	46.4	3	6	315	0.00	29.827 
14:20	72.0	72.0	72.0	43	48.3	2	7	315	0.00	29.828 
14:25	72.3	72.3	72.3	43	48.5	2	6	292	0.00	29.825 
14:30	71.6	71.6	71.6	41	46.6	2	5	315	0.00	29.826 
14:35	71.6	71.6	71.6	44	48.5	1	4	292	0.00	29.825 
14:40	71.1	71.1	71.1	42	46.8	2	6	315	0.00	29.825 
14:45	71.3	71.3	71.3	43	47.6	2	4	315	0.00	29.827 
14:50	71.8	71.8	71.8	42	47.5	2	6	270	0.00	29.823 
14:55	71.3	71.3	71.3	42	47.0	1	4	338	0.00	29.824 
15:00	71.8	71.8	71.8	43	48.1	2	4	292	0.00	29.823 
15:05	72.7	72.7	72.7	40	47.0	2	5	315	0.00	29.821 
15:10	71.8	71.8	71.8	40	46.2	2	4	315	0.00	29.823 
15:15	71.8	71.8	71.8	42	47.5	1	4	315	0.00	29.821 
15:20	72.1	72.1	72.1	42	47.7	2	5	292	0.00	29.822 
15:25	71.5	71.5	71.5	43	47.8	2	5	292	0.00	29.822 
15:30	71.3	71.3	71.3	43	47.6	1	4	292	0.00	29.822 
15:35	70.9	70.9	70.9	43	47.3	2	5	315	0.00	29.823 
15:40	70.6	70.6	70.6	44	47.6	2	6	292	0.00	29.823 
15:45	71.1	71.1	71.1	43	47.5	2	5	292	0.00	29.823 
15:50	71.3	71.3	71.3	44	48.2	2	6	315	0.00	29.822 
15:55	71.6	71.6	71.6	45	49.1	1	4	315	0.00	29.820 
16:00	71.6	71.6	71.6	44	48.5	2	6	292	0.00	29.820 
16:05	71.8	71.8	71.8	44	48.7	2	5	292	0.00	29.824 
16:10	72.1	72.1	72.1	44	49.0	2	6	270	0.00	29.822 
16:15	72.0	72.0	72.0	44	48.9	2	5	292	0.00	29.823 
16:20	71.1	71.1	71.1	47	49.8	2	6	315	0.00	29.825 
16:25	70.9	70.9	70.9	46	49.1	2	6	315	0.00	29.825 
16:30	71.1	71.1	71.1	46	49.3	2	6	292	0.00	29.825 
16:35	71.1	71.1	71.1	45	48.7	3	7	315	0.00	29.826 
16:40	71.1	71.1	71.1	46	49.3	2	5	292	0.00	29.827 
16:45	71.1	71.1	71.1	43	47.5	3	9	270	0.00	29.826 
16:50	70.9	70.9	70.9	43	47.3	3	6	270	0.00	29.826 
16:55	70.9	70.9	70.9	44	47.9	2	6	292	0.00	29.826 
17:00	70.9	70.9	70.9	44	47.9	2	6	292	0.00	29.826 
17:05	70.9	70.9	70.9	44	47.9	2	6	315	0.00	29.826 
17:10	70.8	70.8	70.8	46	49.0	2	8	270	0.00	29.827 
17:15	70.4	70.4	70.4	46	48.6	2	5	292	0.00	29.827 
17:20	70.6	70.6	70.6	45	48.2	2	5	292	0.00	29.828 
17:25	70.6	70.6	70.6	46	48.8	1	4	270	0.00	29.829 
17:30	70.4	70.4	70.4	47	49.2	1	7	270	0.00	29.831 
17:35	70.3	70.3	70.3	46	48.5	2	6	292	0.00	29.831 
17:40	69.9	69.9	69.9	46	48.2	1	4	270	0.00	29.831 
17:45	69.8	69.8	69.8	46	48.1	2	5	292	0.00	29.828 
17:50	69.6	69.6	69.6	47	48.5	2	5	315	0.00	29.827 
17:55	68.9	68.9	68.9	48	48.4	1	3	292	0.00	29.831 
18:00	68.3	68.3	68.3	49	48.4	1	5	315	0.00	29.830 
18:05	68.3	68.3	68.3	51	49.5	2	6	292	0.00	29.828 
18:10	68.6	68.6	68.6	50	49.2	1	4	292	0.00	29.831 
18:15	68.6	68.6	68.6	51	49.7	1	2	292	0.00	29.833 
18:20	68.6	68.6	68.6	49	48.7	1	4	338	0.00	29.835 
18:25	68.4	68.4	68.4	48	47.9	2	7	292	0.00	29.839 
18:30	68.4	68.4	68.4	49	48.5	1	5	292	0.00	29.839 
18:35	68.4	68.4	68.4	48	47.9	2	6	315	0.00	29.839 
18:40	68.4	68.4	68.4	48	47.9	1	4	22	0.00	29.839 
18:45	68.3	68.3	68.3	50	48.9	1	4	315	0.00	29.839 
18:50	67.8	67.8	67.8	51	49.0	1	4	315	0.00	29.839 
18:55	67.4	67.4	67.4	51	48.6	2	5	315	0.00	29.839 
19:00	67.3	67.3	67.3	51	48.5	1	5	315	0.00	29.840 
19:05	67.1	67.1	67.1	51	48.4	1	3	270	0.00	29.837 
19:10	66.9	66.9	66.9	52	48.7	1	4	292	0.00	29.838 
19:15	66.8	66.8	66.8	50	47.6	2	4	292	0.00	29.838 
19:20	66.6	66.6	66.6	51	47.9	1	3	292	0.00	29.839 
19:25	66.4	66.4	66.4	51	47.7	1	3	292	0.00	29.839 
19:30	66.1	66.1	66.1	52	48.0	1	3	292	0.00	29.839 
19:35	66.0	66.0	66.0	52	47.9	2	6	315	0.00	29.838 
19:40	65.6	65.6	65.6	52	47.5	1	5	292	0.00	29.838 
19:45	65.5	65.5	65.5	54	48.4	0	1	315	0.00	29.838 
19:50	65.2	65.2	65.2	54	48.1	0	3	248	0.00	29.839 
19:55	64.8	64.8	64.8	54	47.8	1	3	270	0.00	29.840 
20:00	64.5	64.5	64.5	54	47.5	0	2	270	0.00	29.840 
20:05	64.2	64.2	64.2	55	47.7	1	3	292	0.00	29.837 
20:10	63.9	63.9	63.9	56	47.9	0	3	292	0.00	29.838 
20:15	63.5	63.5	63.5	56	47.5	0	1	292	0.00	29.838 
20:20	63.4	63.4	63.4	57	47.9	0	2	292	0.00	29.839 
20:25	63.2	63.2	63.2	57	47.7	0	2	292	0.00	29.840 
20:30	63.1	63.1	63.1	58	48.1	0	1	292	0.00	29.840 
20:35	62.9	62.9	62.9	58	47.9	0	1	292	0.00	29.840 
20:40	62.7	62.7	62.7	58	47.7	0	2	292	0.00	29.841 
20:45	62.7	62.7	62.7	58	47.7	1	4	292	0.00	29.842 
20:50	62.6	62.6	62.6	58	47.6	0	2	270	0.00	29.845 
20:55	62.4	62.4	62.4	58	47.4	0	2	270	0.00	29.850 
21:00	62.3	62.3	62.3	59	47.8	0	1	270	0.00	29.852 
21:05	62.1	62.1	62.1	59	47.6	0	2	270	0.00	29.853 
21:10	62.0	62.0	62.0	60	48.0	0	1	270	0.00	29.853 
21:15	61.8	61.8	61.8	60	47.8	0	1	270	0.00	29.853 
21:20	61.6	61.6	61.6	61	48.0	0	0	---	0.00	29.853 
21:25	61.3	61.3	61.3	62	48.2	0	0	---	0.00	29.854 
21:30	61.0	61.0	61.0	63	48.3	0	0	---	0.00	29.855 
21:35	60.7	60.7	60.7	63	48.0	0	0	---	0.00	29.855 
21:40	60.2	60.2	60.2	64	48.0	0	0	---	0.00	29.856 
21:45	59.9	59.9	59.9	65	48.1	0	0	---	0.00	29.858 
21:50	59.5	59.5	59.5	66	48.1	0	0	---	0.00	29.859 
21:55	59.0	59.0	59.0	67	48.1	0	0	---	0.00	29.864 
22:00	59.0	59.0	59.0	67	48.1	0	0	---	0.00	29.862 
22:05	59.2	59.2	59.2	67	48.2	0	0	---	0.00	29.860 
22:10	59.3	59.3	59.3	66	47.9	0	0	---	0.00	29.858 
22:15	59.5	59.5	59.5	66	48.1	0	1	270	0.00	29.857 
22:20	59.3	59.3	59.3	67	48.3	0	0	---	0.00	29.856 
22:25	59.0	59.0	59.0	67	48.1	0	0	---	0.00	29.857 
22:30	58.7	58.7	58.7	68	48.2	0	0	---	0.00	29.856 
22:35	58.4	58.4	58.4	68	47.9	0	0	---	0.00	29.856 
22:40	58.1	58.1	58.1	69	48.0	0	0	---	0.00	29.856 
22:45	57.8	57.8	57.8	70	48.1	0	0	---	0.00	29.857 
22:50	57.3	57.3	57.3	71	48.0	0	0	---	0.00	29.858 
22:55	57.0	57.0	57.0	72	48.1	0	0	---	0.00	29.860 
23:00	56.7	56.7	56.7	73	48.1	0	0	---	0.00	29.859 
23:05	56.5	56.5	56.5	74	48.3	0	0	---	0.00	29.859 
23:10	56.2	56.2	56.2	74	48.0	0	0	---	0.00	29.858 
23:15	55.9	55.9	55.9	76	48.4	0	0	---	0.00	29.857 
23:20	55.6	55.6	55.6	77	48.5	0	0	---	0.00	29.857 
23:25	55.4	55.4	55.4	77	48.3	0	0	---	0.00	29.858 
23:30	55.1	55.1	55.1	77	48.0	0	0	---	0.00	29.858 
23:35	55.0	55.0	55.0	78	48.3	0	0	---	0.00	29.858 
23:40	54.8	54.8	54.8	79	48.4	0	0	---	0.00	29.857 
23:45	54.7	54.7	54.7	79	48.3	0	0	---	0.00	29.855 
23:50	54.5	54.5	54.5	80	48.5	0	0	---	0.00	29.855 
23:55	54.5	54.5	54.5	80	48.5	0	0	---	0.00	29.855 

CoCoRaHS
IN-AL-39
A2 Web Hosting
Creative Commons License
GoDaddy
Look for:

loaded 2017-12-11 06:53:55 • last modified 2010-11-18 10:43:29
Privacy PolicyDisclaimer
• wx.awcolley.com is powered by PmWiki v.2002016 •
• all content (unless otherwise noted) © 2017 A W Colley